Latest Weather Observations for Cerberus

IDV60901

Issued at 10:01 pm EST Thursday 22 June 2017 (issued every 10 minutes, with the page automatically refreshed every 10 minutes)

About weather observations | Map of Melbourne area stations | Latest observations for Melbourne area | Other Formats
Station Details ID: 086361 Name: CERBERUS Lat: -38.36 Lon: 145.18 Height: 12.69 m
Data from the previous 72 hours. | See also: Recent months at Cerberus
Date/Time
EST
Temp
°C
App
Temp
°C
Dew
Point
°C
Rel
Hum
%
Delta-T
°C
Wind Press
QNH
hPa
Press
MSL
hPa
Rain since
9am
mm
Dir  Spd
km/h
Gust
km/h
Spd
kts
Gust
kts
22/10:00pm 10.0 7.3 5.4 73 2.1 NNW 9 13 5 7 1022.4 1022.4 0.0
22/09:30pm 9.7 7.3 5.3 74 2.0 NNW 7 13 4 7 1022.5 1022.5 0.0
22/09:00pm 9.9 7.7 5.3 73 2.1 N 6 9 3 5 1022.6 1022.6 0.0
22/08:30pm 9.5 7.2 4.9 73 2.1 NNE 6 11 3 6 1022.8 1022.8 0.0
22/08:00pm 9.3 7.4 4.9 74 2.0 NNE 4 6 2 3 1023.2 1023.2 0.0
22/07:30pm 9.4 7.5 5.0 74 2.0 N 4 7 2 4 1023.4 1023.4 0.0
22/07:00pm 10.0 8.2 5.4 73 2.1 N 4 9 2 5 1023.6 1023.6 0.0
22/06:30pm 10.3 9.0 5.9 74 2.0 NNE 2 4 1 2 1023.5 1023.5 0.0
22/06:00pm 10.7 9.0 5.7 71 2.3 NNE 4 6 2 3 1023.4 1023.4 0.0
22/05:30pm 11.4 9.7 6.1 70 2.5 N 4 6 2 3 1023.3 1023.3 0.0
22/05:00pm 11.8 10.5 6.1 68 2.7 N 2 4 1 2 1023.4 1023.4 0.0
22/04:30pm 12.1 10.8 5.9 66 2.9 N 2 4 1 2 1023.7 1023.7 0.0
22/04:00pm 12.3 10.6 5.7 64 3.1 N 4 7 2 4 1023.8 1023.8 0.0
22/03:30pm 12.5 10.1 5.2 61 3.4 N 7 11 4 6 1023.9 1023.9 0.0
22/03:00pm 12.8 11.1 5.9 63 3.2 NNW 4 7 2 4 1024.5 1024.5 0.0
22/02:30pm 12.6 10.1 4.6 58 3.7 N 7 15 4 8 1024.6 1024.6 0.0
22/02:00pm 12.8 10.5 5.5 61 3.4 NNW 7 13 4 7 1025.1 1025.1 0.0
22/01:30pm 12.3 11.1 6.4 67 2.8 NNW 2 4 1 2 1025.4 1025.4 0.0
22/01:00pm 12.2 10.1 6.0 66 2.9 NNW 6 11 3 6 1025.8 1025.8 0.0
22/12:30pm 12.2 10.1 6.0 66 2.9 NNW 6 11 3 6 1026.1 1026.1 0.0
22/12:00pm 12.4 10.2 6.2 66 2.9 NW 7 9 4 5 1026.7 1026.7 0.0
22/11:30am 12.3 10.2 6.6 68 2.7 NNW 7 11 4 6 1027.2 1027.2 0.0
22/11:00am 11.8 10.0 7.9 77 1.9 NNW 7 11 4 6 1027.4 1027.4 0.0
22/10:30am 11.0 8.7 7.5 79 1.7 NW 9 15 5 8 1027.8 1027.8 0.0
22/10:00am 10.6 9.0 7.8 83 1.3 NNW 6 7 3 4 1027.9 1027.9 0.0
22/09:30am 10.3 9.6 8.6 89 0.8 N 2 4 1 2 1027.8 1027.8 0.0
22/09:00am 9.3 8.4 7.6 89 0.8 NNW 2 4 1 2 1027.9 1027.9 1.2
22/08:30am 8.8 7.3 6.9 88 0.9 ENE 4 6 2 3 1027.9 1027.9 1.2
22/08:00am 8.9 7.1 7.2 89 0.8 NE 6 7 3 4 1027.6 1027.6 1.2
22/07:30am 8.9 8.3 7.2 89 0.8 CALM 0 4 0 2 1027.9 1027.9 1.2
22/07:00am 8.8 7.7 7.1 89 0.8 N 2 6 1 3 1027.7 1027.7 1.2
22/06:30am 8.7 7.6 7.0 89 0.8 NNE 2 6 1 3 1027.2 1027.2 1.2
22/06:00am 8.9 7.5 7.2 89 0.8 NNE 4 9 2 5 1027.2 1027.2 1.2
22/05:30am 8.7 8.0 7.0 89 0.8 CALM 0 4 0 2 1027.3 1027.3 1.2
22/05:00am 8.8 7.4 7.3 90 0.7 NE 4 6 2 3 1027.3 1027.3 1.2
22/04:30am 8.6 7.9 7.1 90 0.7 CALM 0 4 0 2 1027.6 1027.6 1.2
22/04:00am 8.6 7.5 6.9 89 0.8 ESE 2 4 1 2 1027.6 1027.6 1.2
22/03:30am 8.6 7.5 6.9 89 0.8 ESE 2 2 1 1 1027.7 1027.7 1.2
22/03:00am 9.2 7.8 7.3 88 0.9 ESE 4 6 2 3 1027.7 1027.7 1.2
22/02:30am 9.1 7.7 7.2 88 0.9 SE 4 6 2 3 1028.0 1028.0 1.2
22/02:00am 8.8 7.4 7.1 89 0.8 SW 4 6 2 3 1028.2 1028.2 1.2
22/01:30am 8.8 7.4 7.1 89 0.8 SW 4 6 2 3 1028.2 1028.2 1.2
22/01:00am 8.5 7.4 6.8 89 0.8 NW 2 6 1 3 1028.4 1028.4 1.2
22/12:30am 8.6 7.9 6.9 89 0.8 CALM 0 2 0 1 1028.5 1028.5 1.2
22/12:00am 8.5 6.6 6.8 89 0.8 NNW 6 6 3 3 1028.8 1028.8 1.2
 
Date/Time
EST
Temp
°C
App
Temp
°C
Dew
Point
°C
Rel
Hum
%
Delta-T
°C
Wind Press
QNH
hPa
Press
MSL
hPa
Rain since
9am
mm
Dir  Spd
km/h
Gust
km/h
Spd
kts
Gust
kts
21/11:30pm 8.6 7.5 6.9 89 0.8 NW 2 6 1 3 1029.0 1029.0 1.2
21/11:00pm 8.3 7.5 6.6 89 0.8 CALM 0 0 0 0 1029.3 1029.3 1.2
21/10:30pm 8.4 7.6 6.5 88 0.9 CALM 0 4 0 2 1029.4 1029.4 1.2
21/10:00pm 8.3 7.1 6.4 88 0.9 NW 2 4 1 2 1029.6 1029.6 1.2
21/09:30pm 8.0 6.3 6.1 88 0.9 WSW 4 6 2 3 1029.6 1029.6 1.2
21/09:00pm 7.9 6.2 6.0 88 0.9 E 4 6 2 3 1029.6 1029.6 1.2
21/08:30pm 7.7 6.0 5.7 87 0.9 E 4 4 2 2 1029.6 1029.6 1.2
21/08:00pm 7.7 6.3 5.3 85 1.1 E 2 2 1 1 1029.5 1029.5 1.2
21/07:30pm 7.9 6.1 5.2 83 1.2 E 4 6 2 3 1029.3 1029.3 1.2
21/07:00pm 8.4 6.5 5.0 79 1.5 E 4 6 2 3 1029.0 1029.0 1.2
21/06:30pm 10.1 8.1 6.1 76 1.9 ESE 6 9 3 5 1028.5 1028.5 1.2
21/06:00pm 9.9 8.3 6.3 78 1.7 SSE 4 6 2 3 1028.7 1028.7 1.2
21/05:30pm 10.3 9.5 6.3 76 1.9 CALM 0 4 0 2 1028.6 1028.6 1.2
21/05:00pm 10.6 8.4 6.4 75 1.9 SSE 7 11 4 6 1028.6 1028.6 1.2
21/04:30pm 11.4 9.5 6.7 73 2.2 S 6 9 3 5 1028.5 1028.5 1.2
21/04:00pm 11.6 9.6 6.3 70 2.5 WNW 6 7 3 4 1028.5 1028.5 1.2
21/03:30pm 11.9 9.4 6.4 69 2.6 SW 9 15 5 8 1028.4 1028.4 1.2
21/03:00pm 12.8 9.9 6.6 66 2.9 SW 11 15 6 8 1028.4 1028.4 1.2
21/02:30pm 13.0 10.9 6.8 66 3.0 WSW 7 11 4 6 1028.2 1028.2 1.2
21/02:00pm 13.0 11.3 7.5 69 2.7 WSW 6 9 3 5 1028.0 1028.0 1.2
21/01:30pm 12.8 10.5 7.5 70 2.6 SSW 9 15 5 8 1028.0 1028.0 1.2
21/01:00pm 13.0 11.6 8.9 76 2.0 SW 6 9 3 5 1028.0 1028.0 1.2
21/12:30pm 12.9 11.2 8.2 73 2.3 SSW 7 11 4 6 1028.1 1028.1 1.2
21/12:00pm 12.7 11.2 9.0 78 1.8 W 7 11 4 6 1028.3 1028.3 1.2
21/11:30am 11.8 10.9 9.4 85 1.2 SSW 4 6 2 3 1028.6 1028.6 1.2
21/11:00am 11.4 10.0 9.7 89 0.9 SSW 7 13 4 7 1029.0 1029.0 1.2
21/10:30am 12.4 11.3 10.1 86 1.2 NW 6 7 3 4 1028.9 1028.9 0.0
21/10:00am 12.0 11.0 10.2 89 0.9 W 6 6 3 3 1028.9 1028.9 0.0
21/09:30am 11.8 11.6 10.4 91 0.7 WSW 2 4 1 2 1028.6 1028.6 0.0
21/09:00am 11.6 10.6 10.2 91 0.7 WNW 6 7 3 4 1028.2 1028.2 0.6
21/08:30am 11.2 10.1 10.0 92 0.6 WNW 6 9 3 5 1027.9 1027.9 0.6
21/08:00am 11.0 9.7 9.8 92 0.6 NW 7 9 4 5 1027.6 1027.6 0.6
21/07:30am 10.8 10.0 9.6 92 0.6 NW 4 7 2 4 1027.1 1027.1 0.6
21/07:00am 10.8 10.0 9.6 92 0.6 NW 4 6 2 3 1026.9 1026.9 0.6
21/06:30am 10.8 10.4 9.6 92 0.6 NW 2 4 1 2 1026.4 1026.4 0.6
21/06:00am 10.9 10.1 9.7 92 0.6 NNW 4 13 2 7 1026.1 1026.1 0.6
21/05:30am 10.8 9.9 9.4 91 0.7 NW 4 6 2 3 1025.8 1025.8 0.6
21/05:00am 10.8 10.3 9.4 91 0.7 NW 2 6 1 3 1025.8 1025.8 0.4
21/04:30am 10.9 9.7 9.5 91 0.7 WNW 6 9 3 5 1025.5 1025.5 0.4
21/04:00am 10.7 9.4 9.1 90 0.8 NW 6 11 3 6 1025.4 1025.4 0.0
21/03:30am 10.9 8.6 9.0 88 0.9 WNW 11 17 6 9 1025.3 1025.3 0.0
21/03:00am 11.2 8.4 8.6 84 1.3 NW 13 20 7 11 1025.2 1025.2 0.0
21/02:30am 11.9 7.8 7.8 76 2.0 NW 19 26 10 14 1024.8 1024.8 0.0
21/02:00am 12.2 8.8 7.5 73 2.3 NW 15 32 8 17 1024.3 1024.3 0.0
21/01:30am 12.4 8.5 7.3 71 2.5 NNW 17 28 9 15 1024.1 1024.1 0.0
21/01:00am 12.2 9.2 7.5 73 2.3 NNW 13 26 7 14 1024.2 1024.2 0.0
21/12:30am 11.7 8.6 7.2 74 2.2 NW 13 22 7 12 1024.4 1024.4 0.0
21/12:00am 11.4 8.7 7.3 76 2.0 NNW 11 17 6 9 1024.4 1024.4 0.0
 
Date/Time
EST
Temp
°C
App
Temp
°C
Dew
Point
°C
Rel
Hum
%
Delta-T
°C
Wind Press
QNH
hPa
Press
MSL
hPa
Rain since
9am
mm
Dir  Spd
km/h
Gust
km/h
Spd
kts
Gust
kts
20/11:30pm 11.2 8.1 7.3 77 1.9 N 13 20 7 11 1024.4 1024.4 0.0
20/11:00pm 11.6 8.1 7.3 75 2.1 NNW 15 26 8 14 1024.4 1024.4 0.0
20/10:30pm 11.6 8.1 7.1 74 2.2 NNW 15 24 8 13 1024.6 1024.6 0.0
20/10:00pm 11.4 7.5 6.9 74 2.1 NNW 17 26 9 14 1024.3 1024.3 0.0
20/09:30pm 11.3 8.1 6.8 74 2.1 NNW 13 20 7 11 1024.8 1024.8 0.0
20/09:00pm 11.3 7.7 6.8 74 2.1 NNW 15 24 8 13 1024.9 1024.9 0.0
20/08:30pm 11.5 8.3 6.8 73 2.2 NNW 13 26 7 14 1024.9 1024.9 0.0
20/08:00pm 11.9 7.9 6.8 71 2.4 NNW 17 28 9 15 1024.9 1024.9 0.0
20/07:30pm 12.0 8.4 6.9 71 2.4 NNW 15 24 8 13 1024.8 1024.8 0.0
20/07:00pm 11.8 8.7 7.1 73 2.2 N 13 26 7 14 1024.6 1024.6 0.0
20/06:30pm 11.8 9.8 7.1 73 2.3 N 7 11 4 6 1024.7 1024.7 0.0
20/06:00pm 12.4 10.4 7.3 71 2.5 N 7 9 4 5 1024.6 1024.6 0.0
20/05:30pm 12.7 10.8 7.4 70 2.6 N 7 11 4 6 1024.6 1024.6 0.0
20/05:00pm 13.0 10.6 7.2 68 2.8 NNW 9 13 5 7 1024.4 1024.4 0.0
20/04:30pm 14.1 11.8 7.6 65 3.2 NNW 9 20 5 11 1024.1 1024.1 0.0
20/04:00pm 14.7 12.4 7.3 61 3.6 NNW 9 20 5 11 1024.0 1024.0 0.0
20/03:30pm 15.1 12.8 7.6 61 3.7 NNW 9 19 5 10 1023.8 1023.8 0.0
20/03:00pm 14.9 11.0 7.2 60 3.8 N 17 30 9 16 1023.5 1023.5 0.0
20/02:30pm 15.3 12.2 7.3 59 4.0 NNW 13 24 7 13 1023.6 1023.6 0.0
20/02:00pm 15.0 11.1 7.1 59 3.9 NNW 17 30 9 16 1023.8 1023.8 0.0
20/01:30pm 14.9 11.0 7.0 59 3.9 NNW 17 26 9 14 1024.1 1024.1 0.0
20/01:00pm 14.9 11.0 7.2 60 3.8 NNW 17 30 9 16 1024.5 1024.5 0.0
20/12:30pm 14.3 11.0 6.6 60 3.7 NNW 13 24 7 13 1025.0 1025.0 0.0
20/12:00pm 13.8 10.6 6.9 63 3.3 NNW 13 22 7 12 1025.6 1025.6 0.0
20/11:30am 13.1 9.9 6.7 65 3.1 NNW 13 22 7 12 1026.2 1026.2 0.0
20/11:00am 12.9 9.4 7.1 68 2.8 NNW 15 24 8 13 1026.5 1026.5 0.0
20/10:30am 12.8 10.4 6.8 67 2.9 NNW 9 19 5 10 1026.9 1026.9 0.0
20/10:00am 11.6 9.1 6.5 71 2.4 N 9 19 5 10 1027.2 1027.2 0.0
20/09:30am 10.7 8.5 6.1 73 2.1 N 7 15 4 8 1027.3 1027.3 0.0
20/09:00am 9.7 7.5 6.1 78 1.6 N 7 11 4 6 1027.4 1027.4 0.0
20/08:30am 8.5 6.3 6.1 85 1.1 N 7 13 4 7 1027.6 1027.6 0.0
20/08:00am 7.5 5.3 5.5 87 0.9 N 6 9 3 5 1027.5 1027.5 0.0
20/07:30am 7.8 5.7 5.6 86 1.0 N 6 9 3 5 1027.4 1027.4 0.0
20/07:00am 8.0 5.8 5.3 83 1.2 NNW 6 7 3 4 1027.4 1027.4 0.0
20/06:30am 8.9 6.6 5.8 81 1.4 N 7 13 4 7 1027.2 1027.2 0.0
20/06:00am 9.6 7.0 6.3 80 1.5 NNW 9 13 5 7 1027.1 1027.1 0.0
20/05:30am 9.9 8.1 7.2 83 1.3 N 6 9 3 5 1027.0 1027.0 0.0
20/05:00am 10.8 9.2 8.2 84 1.3 N 6 9 3 5 1027.0 1027.0 0.0
20/04:30am 11.4 10.0 8.8 84 1.3 N 6 9 3 5 1027.0 1027.0 0.0
20/04:00am 11.6 10.3 9.3 86 1.1 NNW 6 11 3 6 1027.4 1027.4 0.0
20/03:30am 11.7 10.8 9.4 86 1.2 NW 4 7 2 4 1027.5 1027.5 0.0
20/03:00am 11.8 10.6 9.4 85 1.2 NNW 6 7 3 4 1027.8 1027.8 0.0
20/02:30am 11.8 10.9 9.4 85 1.2 NNW 4 7 2 4 1027.9 1027.9 0.0
20/02:00am 11.6 10.6 8.8 83 1.4 NNW 4 7 2 4 1028.1 1028.1 0.0
20/01:30am 11.8 10.8 8.8 82 1.5 NNW 4 6 2 3 1028.2 1028.2 0.0
20/01:00am 11.7 10.2 8.6 81 1.5 NNW 6 6 3 3 1028.4 1028.4 0.0
20/12:30am 11.7 10.6 8.4 80 1.6 NNW 4 6 2 3 1028.6 1028.6 0.0
20/12:00am 11.6 10.1 8.5 81 1.5 NNW 6 7 3 4 1029.0 1029.0 0.0
 
Date/Time
EST
Temp
°C
App
Temp
°C
Dew
Point
°C
Rel
Hum
%
Delta-T
°C
Wind Press
QNH
hPa
Press
MSL
hPa
Rain since
9am
mm
Dir  Spd
km/h
Gust
km/h
Spd
kts
Gust
kts
19/11:30pm 12.0 11.3 8.7 80 1.6 NNW 2 4 1 2 1029.1 1029.1 0.0
19/11:00pm 12.1 11.1 8.8 80 1.6 NNW 4 6 2 3 1029.4 1029.4 0.0
19/10:30pm 12.3 10.9 8.8 79 1.7 NNW 6 6 3 3 1029.4 1029.4 0.0

Latest Capital City Observations: Canberra | Sydney | Melbourne | Brisbane | Adelaide | Perth | Hobart | Darwin

Other Formats:

Comma delimited format used in spreadsheet applications
http://www.bom.gov.au/fwo/IDV60901/IDV60901.94898.axf

JavaScript Object Notation format (JSON) in row-major order
http://www.bom.gov.au/fwo/IDV60901/IDV60901.94898.json